Time;durP1;ratioP1;P1;durP2;ratioP2;P2;SDS_P1;SDS_P2;PMS_P1;PMS_P2;Temp;Humidity;BMP_temperature;BMP_pressure;BME280_temperature;BME280_humidity;BME280_pressure;Samples;Min_cycle;Max_cycle;Signal;HPM_P1;HPM_P2
2024/01/03 00:02:23;;;;;;;2.07;1.97;;;8.00;99.90;;;;;;5036867;28;20628;-78
2024/01/03 00:04:50;;;;;;;3.17;1.80;;;7.90;99.90;;;;;;5029250;28;20315;-78
2024/01/03 00:07:17;;;;;;;2.50;1.70;;;7.90;99.90;;;;;;5028665;28;20810;-78
2024/01/03 00:09:45;;;;;;;1.53;1.43;;;7.90;99.90;;;;;;5039461;28;20323;-78
2024/01/03 00:12:22;;;;;;;1.70;1.60;;;7.90;99.90;;;;;;5028695;28;20251;-77
2024/01/03 00:14:49;;;;;;;2.13;1.80;;;7.90;99.90;;;;;;5027717;28;20711;-78
2024/01/03 00:17:16;;;;;;;1.67;1.57;;;7.90;99.90;;;;;;5028817;28;20295;-78
2024/01/03 00:19:44;;;;;;;2.30;2.07;;;7.90;99.90;;;;;;5028867;28;20292;-77
2024/01/03 00:22:13;;;;;;;1.43;1.13;;;7.90;99.90;;;;;;5028514;28;20244;-77
2024/01/03 00:24:48;;;;;;;1.90;1.40;;;7.90;99.90;;;;;;5028932;28;20208;-77
2024/01/03 00:27:16;;;;;;;1.67;1.30;;;8.00;99.90;;;;;;5028677;28;20224;-78
2024/01/03 00:29:53;;;;;;;1.43;1.03;;;8.20;99.90;;;;;;5040583;28;20208;-77
2024/01/03 00:32:22;;;;;;;3.10;1.03;;;8.20;99.90;;;;;;5045905;28;20699;-78
2024/01/03 00:34:49;;;;;;;1.63;1.17;;;8.30;99.90;;;;;;5048532;28;20238;-77
2024/01/03 00:37:28;;;;;;;1.57;1.47;;;8.20;99.90;;;;;;5043214;28;20212;-78
2024/01/03 00:39:58;;;;;;;1.63;1.53;;;8.20;99.90;;;;;;5045219;28;20323;-78
2024/01/03 00:42:25;;;;;;;1.57;1.50;;;8.10;99.90;;;;;;5047933;28;20235;-78
2024/01/03 00:44:52;;;;;;;1.60;1.50;;;8.10;99.90;;;;;;5047461;28;20315;-78
2024/01/03 00:47:21;;;;;;;2.63;1.63;;;8.00;99.90;;;;;;5031967;28;20287;-78
2024/01/03 00:49:49;;;;;;;1.10;1.10;;;8.00;99.90;;;;;;5028063;28;20617;-79
2024/01/03 00:52:16;;;;;;;1.60;1.50;;;8.00;99.90;;;;;;5028081;28;20319;-78
2024/01/03 00:54:45;;;;;;;1.10;1.10;;;8.00;99.90;;;;;;5028120;28;20260;-78
2024/01/03 00:57:14;;;;;;;1.07;1.07;;;8.00;99.90;;;;;;5039688;28;20284;-79
2024/01/03 00:59:41;;;;;;;0.90;0.90;;;8.00;99.90;;;;;;5045406;28;20287;-78
2024/01/03 01:02:08;;;;;;;0.97;0.97;;;8.00;99.90;;;;;;5047246;28;20733;-78
2024/01/03 01:04:39;;;;;;;0.80;0.80;;;8.00;99.90;;;;;;5047879;28;20303;-78
2024/01/03 01:07:05;;;;;;;1.00;1.00;;;8.10;99.90;;;;;;5047640;28;20220;-78
2024/01/03 01:09:32;;;;;;;0.70;0.70;;;8.10;99.90;;;;;;5047008;28;20853;-78
2024/01/03 01:11:59;;;;;;;0.70;0.70;;;8.10;99.90;;;;;;5047397;28;20254;-78
2024/01/03 01:14:27;;;;;;;0.60;0.60;;;8.40;99.90;;;;;;5047510;28;20323;-81
2024/01/03 01:16:54;;;;;;;1.00;0.47;;;8.40;99.90;;;;;;5047032;28;20299;-81
2024/01/03 01:19:21;;;;;;;0.70;0.40;;;8.50;99.90;;;;;;5028589;28;20211;-81
2024/01/03 01:21:48;;;;;;;0.97;0.40;;;8.60;99.90;;;;;;5027791;28;20299;-80
2024/01/03 01:24:15;;;;;;;0.20;0.20;;;8.60;99.90;;;;;;5027670;28;20299;-81
2024/01/03 01:26:42;;;;;;;0.47;0.40;;;8.70;99.90;;;;;;5033374;28;20299;-81
2024/01/03 01:29:09;;;;;;;1.00;0.30;;;8.70;99.90;;;;;;5046160;28;20686;-80
2024/01/03 01:31:37;;;;;;;0.50;0.50;;;8.70;99.90;;;;;;5046454;28;20212;-80
2024/01/03 01:34:03;;;;;;;1.07;0.37;;;8.70;99.90;;;;;;5047599;28;20239;-81
2024/01/03 01:36:30;;;;;;;0.40;0.40;;;8.70;99.90;;;;;;5046646;28;20283;-79
2024/01/03 01:38:57;;;;;;;1.07;0.30;;;8.70;99.90;;;;;;5027946;28;20205;-79
2024/01/03 01:41:24;;;;;;;0.43;0.40;;;8.80;99.90;;;;;;5027178;28;20395;-79
2024/01/03 01:43:50;;;;;;;0.30;0.30;;;8.80;99.90;;;;;;5027332;28;20228;-79
2024/01/03 01:46:18;;;;;;;1.80;0.37;;;8.70;99.90;;;;;;5027188;28;20236;-79
2024/01/03 01:48:47;;;;;;;0.40;0.20;;;8.70;99.90;;;;;;5027878;28;20279;-75
2024/01/03 01:51:15;;;;;;;0.33;0.33;;;8.80;99.90;;;;;;5026931;28;20741;-75
2024/01/03 01:53:42;;;;;;;1.47;0.50;;;8.80;99.90;;;;;;5027131;28;20244;-75
2024/01/03 01:56:10;;;;;;;0.60;0.23;;;8.70;99.90;;;;;;5027166;28;20232;-76
2024/01/03 01:58:38;;;;;;;0.30;0.30;;;8.80;99.90;;;;;;5027715;28;20283;-76
2024/01/03 02:01:06;;;;;;;0.53;0.20;;;8.80;99.90;;;;;;5035404;28;21185;-76
2024/01/03 02:03:34;;;;;;;0.27;0.27;;;8.80;99.90;;;;;;5046608;28;20334;-76
2024/01/03 02:06:02;;;;;;;0.37;0.37;;;8.80;99.90;;;;;;5046662;28;20216;-76
2024/01/03 02:08:30;;;;;;;0.97;0.27;;;8.80;99.90;;;;;;5045861;28;20240;-75
2024/01/03 02:10:57;;;;;;;0.40;0.40;;;8.90;99.90;;;;;;5047100;28;20212;-76
2024/01/03 02:13:24;;;;;;;0.30;0.30;;;8.90;99.90;;;;;;5047007;28;20405;-76
2024/01/03 02:15:51;;;;;;;0.40;0.40;;;8.90;99.90;;;;;;5047116;28;20338;-76
2024/01/03 02:18:19;;;;;;;1.07;0.50;;;8.90;99.90;;;;;;5035512;28;20201;-76
2024/01/03 02:20:47;;;;;;;0.87;0.20;;;9.00;99.90;;;;;;5027337;28;20308;-79
2024/01/03 02:23:16;;;;;;;0.30;0.23;;;9.00;99.90;;;;;;5037720;28;20294;-80
2024/01/03 02:25:42;;;;;;;0.30;0.20;;;9.00;99.90;;;;;;5042498;28;20204;-80
2024/01/03 02:28:10;;;;;;;0.20;0.20;;;9.10;99.90;;;;;;5036569;28;20207;-80
2024/01/03 02:30:37;;;;;;;0.30;0.30;;;9.00;99.90;;;;;;5037033;28;20215;-80
2024/01/03 02:33:05;;;;;;;0.20;0.10;;;9.10;99.90;;;;;;5043808;28;20653;-80
2024/01/03 02:35:32;;;;;;;0.30;0.30;;;9.10;99.90;;;;;;5030352;28;20232;-80
2024/01/03 02:37:58;;;;;;;1.40;0.40;;;9.20;99.90;;;;;;5043174;28;20303;-80
2024/01/03 02:40:27;;;;;;;0.60;0.30;;;9.20;99.90;;;;;;5031867;28;20622;-80
2024/01/03 02:42:53;;;;;;;0.20;0.20;;;9.20;99.90;;;;;;5028859;28;20299;-80
2024/01/03 02:45:20;;;;;;;0.20;0.20;;;9.20;99.90;;;;;;5027044;28;20308;-80
2024/01/03 02:47:47;;;;;;;0.93;0.20;;;9.30;99.90;;;;;;5029207;28;20295;-80
2024/01/03 02:50:14;;;;;;;0.20;0.20;;;9.30;99.90;;;;;;5046380;28;20248;-76
2024/01/03 02:52:41;;;;;;;0.80;0.30;;;9.30;99.90;;;;;;5046220;28;20204;-76
2024/01/03 02:55:08;;;;;;;3.23;0.30;;;9.40;99.90;;;;;;5046594;28;20314;-77
2024/01/03 02:57:36;;;;;;;1.80;0.27;;;9.40;99.90;;;;;;5049427;28;20751;-76
2024/01/03 03:00:04;;;;;;;0.43;0.30;;;9.30;99.90;;;;;;5030362;28;20312;-77
2024/01/03 03:02:31;;;;;;;0.17;0.13;;;9.30;99.90;;;;;;5030388;28;20209;-77
2024/01/03 03:04:58;;;;;;;2.17;0.20;;;9.30;99.90;;;;;;5030674;28;20303;-77
2024/01/03 03:07:25;;;;;;;0.20;0.20;;;9.40;99.90;;;;;;5030235;28;20236;-78
2024/01/03 03:09:51;;;;;;;1.33;0.50;;;9.40;99.90;;;;;;5030506;28;20228;-77
2024/01/03 03:12:18;;;;;;;0.20;0.20;;;9.40;99.90;;;;;;5030122;28;20212;-77
2024/01/03 03:14:47;;;;;;;0.30;0.30;;;9.40;99.90;;;;;;5029910;28;20288;-77
2024/01/03 03:17:14;;;;;;;0.93;0.23;;;9.40;99.90;;;;;;5030290;28;20300;-77
2024/01/03 03:19:42;;;;;;;0.20;0.17;;;9.40;99.90;;;;;;5042414;28;20303;-77
2024/01/03 03:22:09;;;;;;;0.77;0.10;;;9.40;99.90;;;;;;5049939;28;20211;-77
2024/01/03 03:24:36;;;;;;;0.13;0.10;;;9.40;99.90;;;;;;5049978;28;20214;-78
2024/01/03 03:27:03;;;;;;;1.33;0.37;;;9.40;99.90;;;;;;5049113;28;20240;-77
2024/01/03 03:29:29;;;;;;;1.30;0.20;;;9.40;99.90;;;;;;5047430;28;20266;-77
2024/01/03 03:31:58;;;;;;;0.40;0.30;;;9.40;99.90;;;;;;5050087;28;20204;-79
2024/01/03 03:34:25;;;;;;;0.57;0.30;;;9.30;99.90;;;;;;5028610;28;20304;-79
2024/01/03 03:36:52;;;;;;;0.27;0.23;;;9.40;99.90;;;;;;5029539;28;20240;-79
2024/01/03 03:39:19;;;;;;;0.20;0.10;;;9.40;99.90;;;;;;5047169;28;20287;-79
2024/01/03 03:41:45;;;;;;;0.53;0.33;;;9.30;99.90;;;;;;5048126;28;20211;-79
2024/01/03 03:44:12;;;;;;;0.50;0.30;;;9.40;99.90;;;;;;5047380;28;20208;-79
2024/01/03 03:46:39;;;;;;;0.10;0.10;;;9.30;99.90;;;;;;5047828;28;20290;-77
2024/01/03 03:49:08;;;;;;;1.10;0.33;;;9.20;99.90;;;;;;5047264;28;20211;-77
2024/01/03 03:51:35;;;;;;;0.30;0.20;;;9.20;99.90;;;;;;5047339;28;20216;-77
2024/01/03 03:54:02;;;;;;;0.37;0.10;;;9.20;99.90;;;;;;5037853;28;20655;-77
2024/01/03 03:56:30;;;;;;;0.43;0.30;;;9.20;99.90;;;;;;5028720;28;20232;-76
2024/01/03 03:58:57;;;;;;;1.17;0.30;;;9.20;99.90;;;;;;5046906;28;20214;-77
2024/01/03 04:01:24;;;;;;;0.43;0.23;;;9.20;99.90;;;;;;5046602;28;20738;-77
2024/01/03 04:03:51;;;;;;;0.33;0.33;;;9.20;99.90;;;;;;5045653;28;20204;-76
2024/01/03 04:06:19;;;;;;;1.50;0.30;;;9.20;99.90;;;;;;5048212;28;20211;-76
2024/01/03 04:08:48;;;;;;;1.80;0.43;;;9.20;99.90;;;;;;5047078;28;20339;-76
2024/01/03 04:11:16;;;;;;;0.40;0.30;;;9.10;99.90;;;;;;5047048;28;20192;-76
2024/01/03 04:13:42;;;;;;;0.50;0.20;;;9.20;99.90;;;;;;5047098;28;20239;-77
2024/01/03 04:16:10;;;;;;;1.10;0.30;;;9.20;99.90;;;;;;5047276;28;20319;-76
2024/01/03 04:18:37;;;;;;;1.03;0.33;;;9.20;99.90;;;;;;5047101;28;20690;-76
2024/01/03 04:21:07;;;;;;;0.47;0.17;;;9.20;99.90;;;;;;5047323;28;20208;-76
2024/01/03 04:23:36;;;;;;;1.43;0.30;;;9.20;99.90;;;;;;5048530;28;20220;-76
2024/01/03 04:26:03;;;;;;;1.07;0.30;;;9.20;99.90;;;;;;5048419;28;20200;-77
2024/01/03 04:28:30;;;;;;;0.50;0.20;;;9.20;99.90;;;;;;5048126;28;20358;-76
2024/01/03 04:30:57;;;;;;;0.70;0.37;;;9.20;99.90;;;;;;5043411;28;20220;-76
2024/01/03 04:33:23;;;;;;;0.23;0.23;;;9.20;99.90;;;;;;5028042;28;20804;-77
2024/01/03 04:35:50;;;;;;;3.20;0.40;;;9.20;99.90;;;;;;5027903;28;20258;-76
2024/01/03 04:38:17;;;;;;;0.60;0.20;;;9.30;99.90;;;;;;5041846;28;20298;-76
2024/01/03 04:40:45;;;;;;;0.40;0.30;;;9.30;99.90;;;;;;5048191;28;20290;-76
2024/01/03 04:43:12;;;;;;;1.30;0.30;;;9.40;99.90;;;;;;5047400;28;20298;-77
2024/01/03 04:45:39;;;;;;;1.80;0.33;;;9.40;99.90;;;;;;5047784;28;20737;-76
2024/01/03 04:48:07;;;;;;;0.43;0.30;;;9.50;99.90;;;;;;5047724;28;20672;-76
2024/01/03 04:50:34;;;;;;;0.33;0.33;;;9.50;99.90;;;;;;5047812;28;20253;-76
2024/01/03 04:53:01;;;;;;;1.90;0.63;;;9.50;99.90;;;;;;5047616;28;20306;-77
2024/01/03 04:55:29;;;;;;;0.47;0.33;;;9.50;99.90;;;;;;5047863;28;20259;-76
2024/01/03 04:57:58;;;;;;;1.30;0.67;;;9.40;99.90;;;;;;5047822;28;20571;-76
2024/01/03 05:00:25;;;;;;;0.33;0.20;;;9.50;99.90;;;;;;5047702;28;20306;-77
2024/01/03 05:02:53;;;;;;;2.13;0.43;;;9.50;99.90;;;;;;5047051;28;20294;-77
2024/01/03 05:05:19;;;;;;;1.70;0.50;;;9.50;99.90;;;;;;5047676;28;20204;-77
2024/01/03 05:07:46;;;;;;;1.40;0.40;;;9.50;99.90;;;;;;5047312;28;20346;-77
2024/01/03 05:10:13;;;;;;;1.83;0.70;;;9.50;99.90;;;;;;5047213;28;20742;-77
2024/01/03 05:12:40;;;;;;;1.47;0.40;;;9.40;99.90;;;;;;5046963;28;20726;-76
2024/01/03 05:15:10;;;;;;;0.87;0.60;;;9.60;99.90;;;;;;5047131;28;20321;-77
2024/01/03 05:17:37;;;;;;;0.53;0.40;;;9.60;99.90;;;;;;5047402;28;20274;-76
2024/01/03 05:20:05;;;;;;;0.97;0.50;;;9.60;99.90;;;;;;5046724;28;20290;-77
2024/01/03 05:22:32;;;;;;;1.63;0.50;;;9.60;99.90;;;;;;5046819;28;20200;-77
2024/01/03 05:25:00;;;;;;;1.53;0.50;;;9.60;99.90;;;;;;5046988;28;20299;-77
2024/01/03 05:27:27;;;;;;;0.67;0.60;;;9.60;99.90;;;;;;5040326;28;20635;-77
2024/01/03 05:29:53;;;;;;;1.47;0.50;;;9.60;99.90;;;;;;5031223;28;20227;-77
2024/01/03 05:32:22;;;;;;;2.00;0.70;;;9.60;99.90;;;;;;5046882;28;20212;-77
2024/01/03 05:34:49;;;;;;;1.13;0.50;;;9.60;99.90;;;;;;5047501;28;20209;-77
2024/01/03 05:37:15;;;;;;;0.67;0.30;;;9.50;99.90;;;;;;5046739;28;20244;-77
2024/01/03 05:39:42;;;;;;;1.33;0.70;;;9.50;99.90;;;;;;5046965;28;20204;-76
2024/01/03 05:42:09;;;;;;;0.80;0.50;;;9.50;99.90;;;;;;5046675;28;20303;-77
2024/01/03 05:44:36;;;;;;;1.17;0.47;;;9.50;99.90;;;;;;5047179;28;20290;-76
2024/01/03 05:47:04;;;;;;;0.50;0.43;;;9.60;99.90;;;;;;5047135;28;20281;-77
2024/01/03 05:49:34;;;;;;;3.60;0.90;;;9.60;99.90;;;;;;5047057;28;20207;-77
2024/01/03 05:52:01;;;;;;;2.27;0.50;;;9.50;99.90;;;;;;5046934;28;20302;-77
2024/01/03 05:54:28;;;;;;;0.97;0.40;;;9.60;99.90;;;;;;5046734;28;20258;-77
2024/01/03 05:56:55;;;;;;;1.53;0.70;;;9.60;99.90;;;;;;5047256;28;20228;-77
2024/01/03 05:59:22;;;;;;;0.30;0.30;;;9.60;99.90;;;;;;5047317;28;20210;-77
2024/01/03 06:01:49;;;;;;;2.20;1.00;;;9.50;99.90;;;;;;5039334;28;20303;-76
2024/01/03 06:04:15;;;;;;;0.57;0.33;;;9.50;99.90;;;;;;5024950;28;20240;-77
2024/01/03 06:06:44;;;;;;;1.37;0.53;;;9.60;99.90;;;;;;5027693;28;20319;-78
2024/01/03 06:09:11;;;;;;;2.60;0.93;;;9.60;99.90;;;;;;5046106;28;20323;-76
2024/01/03 06:11:38;;;;;;;0.87;0.60;;;9.60;99.90;;;;;;5046566;28;20291;-77
2024/01/03 06:14:05;;;;;;;2.30;0.67;;;9.60;99.90;;;;;;5046698;28;20638;-76
2024/01/03 06:16:32;;;;;;;1.60;0.60;;;9.60;99.90;;;;;;5046242;28;20235;-76
2024/01/03 06:18:59;;;;;;;0.90;0.60;;;9.60;99.90;;;;;;5046521;28;20211;-76
2024/01/03 06:21:26;;;;;;;1.63;0.87;;;9.60;99.90;;;;;;5046598;28;20219;-76
2024/01/03 06:23:54;;;;;;;3.73;0.63;;;9.60;99.90;;;;;;5038272;28;20205;-77
2024/01/03 06:26:23;;;;;;;2.03;0.80;;;9.60;99.90;;;;;;5026542;28;20219;-77
2024/01/03 06:28:50;;;;;;;1.77;0.70;;;9.50;99.90;;;;;;5026524;28;20209;-77
2024/01/03 06:31:21;;;;;;;0.93;0.50;;;9.60;99.90;;;;;;5043557;28;20291;-76
2024/01/03 06:33:48;;;;;;;1.90;0.30;;;9.60;99.90;;;;;;5050494;28;20287;-77
2024/01/03 06:36:15;;;;;;;0.53;0.50;;;9.50;99.90;;;;;;5050278;28;20322;-77
2024/01/03 06:38:42;;;;;;;1.33;0.43;;;9.60;99.90;;;;;;5049676;28;20691;-76
2024/01/03 06:41:10;;;;;;;0.57;0.47;;;9.60;99.90;;;;;;5049768;28;20551;-77
2024/01/03 06:43:37;;;;;;;1.37;0.40;;;9.70;99.90;;;;;;5049480;28;20204;-76
2024/01/03 06:46:05;;;;;;;2.00;0.63;;;9.70;99.90;;;;;;5050254;28;20299;-76
2024/01/03 06:48:32;;;;;;;1.50;0.53;;;9.70;99.90;;;;;;5050135;28;20577;-77
2024/01/03 06:51:02;;;;;;;2.97;0.80;;;9.70;99.90;;;;;;5049925;28;20203;-76
2024/01/03 06:53:29;;;;;;;1.50;0.40;;;9.60;99.90;;;;;;5049622;28;20215;-77
2024/01/03 06:55:55;;;;;;;2.67;0.73;;;9.60;99.90;;;;;;5050240;28;20311;-76
2024/01/03 06:58:27;;;;;;;1.33;0.80;;;9.60;99.90;;;;;;5049881;28;20208;-76
2024/01/03 07:00:53;;;;;;;1.57;0.53;;;9.60;99.90;;;;;;5050363;28;20295;-77
2024/01/03 07:03:20;;;;;;;0.53;0.40;;;9.60;99.90;;;;;;5049591;28;20295;-77
2024/01/03 07:05:47;;;;;;;0.67;0.40;;;9.60;99.90;;;;;;5049242;28;20216;-76
2024/01/03 07:08:14;;;;;;;2.90;0.70;;;9.60;99.90;;;;;;5049163;28;20240;-76
2024/01/03 07:10:41;;;;;;;0.97;0.50;;;9.50;99.90;;;;;;5049462;28;20270;-78
2024/01/03 07:13:08;;;;;;;0.93;0.40;;;9.50;99.90;;;;;;5050415;28;20248;-76
2024/01/03 07:15:36;;;;;;;2.10;0.70;;;9.60;99.90;;;;;;5049327;28;20303;-77
2024/01/03 07:18:03;;;;;;;3.17;0.70;;;9.60;99.90;;;;;;5049158;28;20224;-76
2024/01/03 07:20:31;;;;;;;1.60;0.43;;;9.60;99.90;;;;;;5049245;28;20663;-77
2024/01/03 07:22:58;;;;;;;1.03;0.53;;;9.60;99.90;;;;;;5049392;28;20302;-77
2024/01/03 07:25:25;;;;;;;3.63;0.70;;;9.70;99.90;;;;;;5049237;28;20298;-77
2024/01/03 07:27:52;;;;;;;1.67;0.47;;;9.70;99.90;;;;;;5048981;28;20240;-76
2024/01/03 07:30:19;;;;;;;1.80;0.60;;;9.60;99.90;;;;;;5049037;28;20206;-76
2024/01/03 07:32:47;;;;;;;1.33;0.60;;;9.70;99.90;;;;;;5048967;28;20295;-77
2024/01/03 07:35:14;;;;;;;2.00;0.90;;;9.70;99.90;;;;;;5048919;28;20612;-77
2024/01/03 07:37:41;;;;;;;1.50;0.80;;;9.60;99.90;;;;;;5040185;28;20327;-77
2024/01/03 07:40:09;;;;;;;2.83;0.57;;;9.70;99.90;;;;;;5028948;28;20296;-76
2024/01/03 07:42:37;;;;;;;2.20;0.67;;;9.70;99.90;;;;;;5028526;28;20215;-76
2024/01/03 07:45:04;;;;;;;1.77;0.80;;;9.80;99.90;;;;;;5029019;28;20627;-77
2024/01/03 07:47:31;;;;;;;0.80;0.63;;;9.70;99.90;;;;;;5029060;28;20738;-77
2024/01/03 07:49:59;;;;;;;2.30;0.80;;;9.80;99.90;;;;;;5029228;28;20347;-77
2024/01/03 07:52:27;;;;;;;0.77;0.53;;;9.80;99.90;;;;;;5028866;28;20219;-77
2024/01/03 07:54:54;;;;;;;1.87;0.50;;;9.80;99.90;;;;;;5028929;28;20224;-77
2024/01/03 07:57:21;;;;;;;0.50;0.47;;;9.80;99.90;;;;;;5028763;28;20328;-77
2024/01/03 07:59:48;;;;;;;1.50;0.50;;;9.70;99.90;;;;;;5029020;28;20311;-77
2024/01/03 08:02:15;;;;;;;1.33;0.60;;;9.80;99.90;;;;;;5044243;28;20253;-77
2024/01/03 08:04:42;;;;;;;1.17;0.50;;;9.70;99.90;;;;;;5048766;28;20235;-76
2024/01/03 08:07:10;;;;;;;3.43;0.80;;;9.70;99.90;;;;;;5044033;28;20274;-76
2024/01/03 08:09:38;;;;;;;2.00;0.90;;;9.70;99.90;;;;;;5042761;28;20321;-76
2024/01/03 08:12:06;;;;;;;1.20;0.53;;;9.70;99.90;;;;;;5048736;28;20267;-76
2024/01/03 08:14:34;;;;;;;2.10;0.70;;;9.70;99.90;;;;;;5048606;28;20283;-76
2024/01/03 08:17:00;;;;;;;0.67;0.40;;;9.80;99.90;;;;;;5035527;28;20268;-76
2024/01/03 08:19:27;;;;;;;1.93;0.50;;;9.80;99.90;;;;;;5028237;28;20308;-76
2024/01/03 08:21:54;;;;;;;2.73;0.73;;;9.80;99.90;;;;;;5028844;28;20304;-76
2024/01/03 08:24:23;;;;;;;2.37;0.70;;;9.80;99.90;;;;;;5027890;28;20209;-76
2024/01/03 08:26:50;;;;;;;0.93;0.53;;;9.80;99.90;;;;;;5028596;28;20705;-76
2024/01/03 08:29:17;;;;;;;1.97;0.70;;;9.70;99.90;;;;;;5028395;28;20263;-76
2024/01/03 08:31:44;;;;;;;1.00;1.00;;;9.70;99.90;;;;;;5047595;28;20278;-77
2024/01/03 08:34:11;;;;;;;1.53;0.80;;;9.70;99.90;;;;;;5048077;28;20299;-77
2024/01/03 08:36:41;;;;;;;1.37;0.60;;;9.70;99.90;;;;;;5048216;28;20346;-77
2024/01/03 08:39:09;;;;;;;0.77;0.33;;;9.80;99.90;;;;;;5047288;28;20208;-77
2024/01/03 08:41:37;;;;;;;2.07;0.80;;;9.80;99.90;;;;;;5048146;28;20236;-77
2024/01/03 08:44:07;;;;;;;2.13;0.73;;;9.80;99.90;;;;;;5047745;28;20243;-77
2024/01/03 08:46:34;;;;;;;0.90;0.40;;;9.80;99.90;;;;;;5048235;28;20243;-76
2024/01/03 08:49:04;;;;;;;1.90;0.50;;;9.70;99.90;;;;;;5048326;28;20211;-77
2024/01/03 08:51:31;;;;;;;1.60;0.40;;;9.80;99.90;;;;;;5047961;28;20208;-77
2024/01/03 08:53:58;;;;;;;2.97;0.53;;;9.80;99.90;;;;;;5047035;28;20204;-77
2024/01/03 08:56:25;;;;;;;0.97;0.63;;;9.80;99.90;;;;;;5047820;28;20196;-77
2024/01/03 08:58:54;;;;;;;1.67;0.50;;;9.80;99.90;;;;;;5047691;28;20209;-77
2024/01/03 09:01:22;;;;;;;3.50;0.70;;;9.80;99.90;;;;;;5047751;28;20228;-77
2024/01/03 09:03:50;;;;;;;1.77;0.43;;;9.80;99.90;;;;;;5047505;28;20236;-77
2024/01/03 09:06:19;;;;;;;1.23;0.70;;;9.80;99.90;;;;;;5031225;28;20316;-77
2024/01/03 09:08:50;;;;;;;0.70;0.63;;;10.00;99.90;;;;;;5045222;28;20219;-77
2024/01/03 09:11:18;;;;;;;1.80;0.53;;;10.00;99.90;;;;;;5047541;28;20231;-77
2024/01/03 09:13:49;;;;;;;0.80;0.60;;;10.10;99.90;;;;;;5047498;28;20250;-77
2024/01/03 09:16:18;;;;;;;1.37;0.53;;;10.10;99.90;;;;;;5047170;28;20192;-76
2024/01/03 09:18:46;;;;;;;1.23;0.70;;;10.10;99.90;;;;;;5047243;28;20641;-77
2024/01/03 09:21:13;;;;;;;0.50;0.50;;;10.20;99.90;;;;;;5046752;28;20206;-77
2024/01/03 09:23:40;;;;;;;1.57;0.90;;;10.20;99.90;;;;;;5047259;28;20234;-76
2024/01/03 09:26:07;;;;;;;2.73;0.70;;;10.20;99.90;;;;;;5047273;28;20304;-77
2024/01/03 09:28:37;;;;;;;2.10;0.70;;;10.30;99.90;;;;;;5047161;28;20691;-77
2024/01/03 09:31:04;;;;;;;0.80;0.60;;;10.30;99.90;;;;;;5046951;28;20200;-77
2024/01/03 09:33:32;;;;;;;1.70;0.67;;;10.40;99.90;;;;;;5046878;28;20208;-76
2024/01/03 09:35:59;;;;;;;0.73;0.50;;;10.50;99.90;;;;;;5046962;28;20595;-77
2024/01/03 09:38:26;;;;;;;2.10;0.70;;;10.50;99.90;;;;;;5038434;28;20246;-77
2024/01/03 09:40:54;;;;;;;1.30;0.60;;;10.60;99.90;;;;;;5046407;28;20331;-76
2024/01/03 09:43:21;;;;;;;1.10;0.63;;;10.60;99.90;;;;;;5046956;28;20296;-76
2024/01/03 09:45:49;;;;;;;2.50;0.83;;;10.70;99.90;;;;;;5047179;28;20210;-76
2024/01/03 09:48:16;;;;;;;2.33;0.93;;;10.70;99.90;;;;;;5047195;28;20242;-76
2024/01/03 09:50:45;;;;;;;3.13;0.70;;;10.70;99.90;;;;;;5047125;28;20214;-77
2024/01/03 09:53:14;;;;;;;1.37;0.70;;;10.60;99.90;;;;;;5046082;28;20214;-76
2024/01/03 09:55:41;;;;;;;2.13;0.80;;;10.60;99.90;;;;;;5047005;28;20219;-76
2024/01/03 09:58:07;;;;;;;1.87;0.83;;;10.60;99.90;;;;;;5046981;28;20326;-77
2024/01/03 10:00:34;;;;;;;2.40;0.83;;;10.60;99.90;;;;;;5046707;28;20294;-76
2024/01/03 10:03:02;;;;;;;3.77;0.70;;;10.60;99.90;;;;;;5046960;28;20270;-76
2024/01/03 10:05:29;;;;;;;2.87;1.00;;;10.60;99.90;;;;;;5046310;28;20204;-77
2024/01/03 10:07:58;;;;;;;1.60;1.00;;;10.60;99.90;;;;;;5035788;28;20713;-76
2024/01/03 10:10:33;;;;;;;0.47;0.40;;;10.60;99.90;;;;;;5026482;28;20602;-77
2024/01/03 10:13:15;;;;;;;1.50;0.83;;;10.60;99.90;;;;;;5026982;28;20303;-77
2024/01/03 10:15:43;;;;;;;1.23;0.77;;;10.60;99.90;;;;;;5026798;28;20196;-77
2024/01/03 10:18:10;;;;;;;2.00;0.90;;;10.70;99.90;;;;;;5026942;28;20240;-76
2024/01/03 10:20:37;;;;;;;2.97;0.77;;;10.80;99.90;;;;;;5026410;28;20703;-77
2024/01/03 10:23:07;;;;;;;1.33;0.60;;;10.90;99.90;;;;;;5026557;28;20208;-77
2024/01/03 10:25:34;;;;;;;3.60;1.17;;;10.90;99.90;;;;;;5026735;28;20255;-77
2024/01/03 10:28:02;;;;;;;0.83;0.80;;;10.90;99.90;;;;;;5026642;28;20300;-76
2024/01/03 10:30:30;;;;;;;2.03;1.20;;;10.80;99.90;;;;;;5035222;28;20696;-77
2024/01/03 10:33:00;;;;;;;2.30;0.63;;;10.80;99.90;;;;;;5046045;28;20671;-76
2024/01/03 10:35:28;;;;;;;2.37;0.90;;;10.80;99.90;;;;;;5046371;28;20243;-77
2024/01/03 10:37:56;;;;;;;2.77;1.00;;;10.90;99.90;;;;;;5045914;28;20323;-77
2024/01/03 10:40:26;;;;;;;2.50;0.87;;;10.90;99.90;;;;;;5045735;28;20318;-77
2024/01/03 10:42:54;;;;;;;3.23;1.63;;;10.90;99.90;;;;;;5046186;28;20206;-77
2024/01/03 10:45:21;;;;;;;3.60;2.87;;;10.90;99.90;;;;;;5046250;28;20620;-76
2024/01/03 10:47:48;;;;;;;1.00;0.90;;;10.90;99.90;;;;;;5046456;28;20208;-77
2024/01/03 10:50:16;;;;;;;0.90;0.80;;;10.90;99.90;;;;;;5046027;28;20667;-77
2024/01/03 10:52:44;;;;;;;0.73;0.63;;;10.90;99.90;;;;;;5045832;28;20683;-77
2024/01/03 10:55:13;;;;;;;1.60;0.70;;;10.90;99.90;;;;;;5046241;28;20303;-77
2024/01/03 10:57:44;;;;;;;1.50;0.83;;;11.00;99.90;;;;;;5046470;28;20318;-77
2024/01/03 11:00:18;;;;;;;1.27;0.83;;;10.90;99.90;;;;;;5046194;28;20188;-77
2024/01/03 11:02:51;;;;;;;1.00;0.80;;;10.90;99.90;;;;;;5046139;28;20684;-77
2024/01/03 11:05:26;;;;;;;0.90;0.60;;;10.90;99.90;;;;;;5037160;28;20283;-77
2024/01/03 11:08:00;;;;;;;2.97;0.70;;;11.00;99.90;;;;;;5036959;28;20242;-77
2024/01/03 11:10:53;;;;;;;1.13;0.60;;;11.00;99.90;;;;;;5046118;28;20246;-76
2024/01/03 11:13:29;;;;;;;2.67;0.70;;;11.00;99.90;;;;;;5046380;28;20227;-77
2024/01/03 11:15:58;;;;;;;0.93;0.73;;;10.90;99.90;;;;;;5046413;28;20204;-77
2024/01/03 11:18:51;;;;;;;1.83;0.60;;;10.90;99.90;;;;;;5049485;28;20534;-77
2024/01/03 11:21:46;;;;;;;0.63;0.50;;;11.00;99.90;;;;;;5049632;28;20558;-77
2024/01/03 11:24:56;;;;;;;1.23;0.63;;;10.90;99.90;;;;;;5049244;28;20303;-76
2024/01/03 11:27:26;;;;;;;1.13;0.80;;;10.90;99.90;;;;;;5049737;28;20242;-77
2024/01/03 11:29:57;;;;;;;1.77;1.07;;;10.80;99.90;;;;;;5049225;28;20231;-76
2024/01/03 11:32:45;;;;;;;1.50;0.70;;;10.80;99.90;;;;;;5049175;28;20781;-77
2024/01/03 11:35:12;;;;;;;2.50;0.67;;;10.80;99.90;;;;;;5049343;28;20240;-77
2024/01/03 11:37:42;;;;;;;1.03;0.50;;;10.90;99.90;;;;;;5049142;28;20240;-77
2024/01/03 11:40:20;;;;;;;0.63;0.50;;;10.90;99.90;;;;;;5048650;28;20207;-77
2024/01/03 11:42:47;;;;;;;2.13;0.43;;;11.00;99.90;;;;;;5048552;28;20192;-76
2024/01/03 11:45:17;;;;;;;1.50;0.53;;;11.10;99.90;;;;;;5048827;28;20208;-77
2024/01/03 11:47:45;;;;;;;2.47;0.70;;;11.10;99.90;;;;;;5049414;28;20215;-78
2024/01/03 11:50:13;;;;;;;1.60;0.73;;;11.10;99.90;;;;;;5049158;28;20326;-76
2024/01/03 11:52:42;;;;;;;2.80;0.67;;;11.10;99.90;;;;;;5048437;28;20726;-76
2024/01/03 11:55:11;;;;;;;1.13;0.80;;;11.00;99.90;;;;;;5050004;28;20299;-77
2024/01/03 11:57:42;;;;;;;1.07;0.60;;;11.00;99.90;;;;;;5049301;28;20204;-77
2024/01/03 12:00:11;;;;;;;1.57;0.40;;;11.00;99.90;;;;;;5048977;28;20207;-76
2024/01/03 12:02:49;;;;;;;1.17;0.87;;;11.00;99.90;;;;;;5048482;28;20226;-76
2024/01/03 12:05:17;;;;;;;1.50;0.60;;;10.90;99.90;;;;;;5049017;28;20262;-76
2024/01/03 12:07:44;;;;;;;2.60;0.90;;;10.90;99.90;;;;;;5039571;28;20233;-76
2024/01/03 12:10:12;;;;;;;2.67;0.90;;;10.80;99.90;;;;;;5028561;28;20334;-76
2024/01/03 12:12:40;;;;;;;0.80;0.67;;;10.80;99.90;;;;;;5029183;28;20225;-76
2024/01/03 12:15:08;;;;;;;2.43;0.90;;;10.80;99.90;;;;;;5028882;28;20300;-77
2024/01/03 12:17:35;;;;;;;1.87;1.03;;;10.80;99.90;;;;;;5028387;28;20801;-77
2024/01/03 12:20:12;;;;;;;3.27;0.70;;;10.80;99.90;;;;;;5029022;28;20292;-76
2024/01/03 12:22:40;;;;;;;3.33;1.10;;;10.80;99.90;;;;;;5028439;28;20211;-76
2024/01/03 12:25:08;;;;;;;1.87;1.00;;;10.80;99.90;;;;;;5028412;28;20216;-76
2024/01/03 12:27:35;;;;;;;3.23;1.00;;;10.70;99.90;;;;;;5037737;28;20212;-76
2024/01/03 12:30:16;;;;;;;1.70;0.70;;;10.70;99.90;;;;;;5047446;28;20204;-77
2024/01/03 12:32:43;;;;;;;2.13;1.00;;;10.70;99.90;;;;;;5048037;28;20196;-77
2024/01/03 12:35:12;;;;;;;3.10;0.90;;;10.70;99.90;;;;;;5047998;28;20223;-76
2024/01/03 12:37:44;;;;;;;1.53;1.07;;;10.60;99.90;;;;;;5039404;28;20212;-77
2024/01/03 12:40:14;;;;;;;1.40;1.10;;;10.60;99.90;;;;;;5027906;28;20205;-77
2024/01/03 12:42:41;;;;;;;6.20;1.20;;;10.60;99.90;;;;;;5036783;28;20222;-77
2024/01/03 12:45:09;;;;;;;2.73;2.10;;;10.60;99.90;;;;;;5047707;28;20227;-76
2024/01/03 12:47:36;;;;;;;3.13;1.50;;;10.60;99.90;;;;;;5048084;28;20633;-77
2024/01/03 12:50:03;;;;;;;2.60;1.40;;;10.60;99.90;;;;;;5047814;28;20196;-76
2024/01/03 12:52:32;;;;;;;5.57;1.20;;;10.60;99.90;;;;;;5047234;28;20218;-76
2024/01/03 12:54:59;;;;;;;2.40;1.17;;;10.60;99.90;;;;;;5047811;28;20239;-76
2024/01/03 12:57:26;;;;;;;4.60;1.30;;;10.60;99.90;;;;;;5047539;28;20291;-77
2024/01/03 12:59:53;;;;;;;3.47;1.40;;;10.60;99.90;;;;;;5047742;28;20234;-77